createdAt,value
2018-03-15T00:01:43.024Z,10.75
2018-03-15T00:04:11.161Z,12.63
2018-03-15T00:06:39.326Z,8.98
2018-03-15T00:09:08.225Z,11.30
2018-03-15T00:11:36.394Z,9.95
2018-03-15T00:14:05.285Z,10.82
2018-03-15T00:16:33.420Z,11.32
2018-03-15T00:19:01.576Z,11.15
2018-03-15T00:21:29.705Z,9.70
2018-03-15T00:23:57.858Z,9.50
2018-03-15T00:26:25.995Z,10.63
2018-03-15T00:28:54.150Z,11.20
2018-03-15T00:31:22.280Z,10.93
2018-03-15T00:33:50.445Z,11.00
2018-03-15T00:36:18.573Z,10.30
2018-03-15T00:38:46.738Z,12.77
2018-03-15T00:41:14.870Z,12.80
2018-03-15T00:43:43.029Z,11.85
2018-03-15T00:46:11.163Z,11.27
2018-03-15T00:48:39.318Z,9.07
2018-03-15T00:51:07.454Z,10.35
2018-03-15T00:53:35.615Z,8.65
2018-03-15T00:56:03.762Z,9.55
2018-03-15T00:58:31.920Z,9.20
2018-03-15T01:01:00.057Z,10.45
2018-03-15T01:03:28.214Z,9.98
2018-03-15T01:05:56.348Z,9.75
2018-03-15T01:08:24.494Z,9.85
2018-03-15T01:10:53.394Z,9.80
2018-03-15T01:13:21.562Z,10.20
2018-03-15T01:15:50.457Z,10.05
2018-03-15T01:18:18.614Z,9.93
2018-03-15T01:20:47.519Z,11.48
2018-03-15T01:23:15.692Z,10.48
2018-03-15T01:25:44.581Z,10.65
2018-03-15T01:28:12.717Z,9.43
2018-03-15T01:30:40.874Z,10.80
2018-03-15T01:33:09.010Z,10.30
2018-03-15T01:35:37.171Z,10.50
2018-03-15T01:38:05.297Z,11.43
2018-03-15T01:40:33.465Z,10.50
2018-03-15T01:43:01.591Z,10.35
2018-03-15T01:45:29.748Z,11.40
2018-03-15T01:47:57.884Z,11.90
2018-03-15T01:50:26.046Z,11.80
2018-03-15T01:52:54.187Z,11.80
2018-03-15T01:55:22.343Z,11.68
2018-03-15T01:57:50.482Z,12.70
2018-03-15T02:00:18.642Z,12.15
2018-03-15T02:02:46.777Z,14.02
2018-03-15T02:05:14.939Z,12.35
2018-03-15T02:07:43.066Z,11.63
2018-03-15T02:10:11.227Z,13.57
2018-03-15T02:12:39.368Z,11.15
2018-03-15T02:15:07.531Z,11.70
2018-03-15T02:17:35.676Z,12.40
2018-03-15T02:20:03.835Z,12.20
2018-03-15T02:22:31.972Z,13.23
2018-03-15T02:25:00.129Z,14.40
2018-03-15T02:27:28.273Z,14.43
2018-03-15T02:29:56.445Z,13.57
2018-03-15T02:32:24.578Z,15.20
2018-03-15T02:34:52.734Z,13.43
2018-03-15T02:37:20.877Z,16.08
2018-03-15T02:39:49.039Z,15.00
2018-03-15T02:42:17.175Z,13.57
2018-03-15T02:44:45.307Z,13.50
2018-03-15T02:47:13.469Z,14.20
2018-03-15T02:49:41.613Z,13.25
2018-03-15T02:52:09.772Z,14.40
2018-03-15T02:54:37.901Z,13.25
2018-03-15T02:57:06.065Z,13.18
2018-03-15T02:59:34.199Z,13.43
2018-03-15T03:02:02.371Z,13.05
2018-03-15T03:04:30.527Z,14.13
2018-03-15T03:06:58.691Z,14.90
2018-03-15T03:09:26.820Z,16.12
2018-03-15T03:11:54.979Z,15.15
2018-03-15T03:14:23.109Z,14.80
2018-03-15T03:16:51.265Z,15.23
2018-03-15T03:19:20.167Z,15.63
2018-03-15T03:21:48.326Z,15.05
2018-03-15T03:24:16.462Z,14.60
2018-03-15T03:26:44.624Z,14.95
2018-03-15T03:29:12.763Z,15.48
2018-03-15T03:31:40.930Z,14.82
2018-03-15T03:34:09.824Z,15.13
2018-03-15T03:36:37.961Z,15.65
2018-03-15T03:39:06.118Z,16.37
2018-03-15T03:41:34.250Z,17.17
2018-03-15T03:44:03.174Z,16.12
2018-03-15T03:46:31.305Z,13.52
2018-03-15T03:48:59.467Z,16.37
2018-03-15T03:51:27.600Z,15.98
2018-03-15T03:53:55.754Z,15.80
2018-03-15T03:56:23.895Z,17.12
2018-03-15T03:58:52.058Z,16.17
2018-03-15T04:01:20.189Z,15.40
2018-03-15T04:03:48.355Z,18.20
2018-03-15T04:06:16.486Z,15.50
2018-03-15T04:08:44.650Z,15.80
2018-03-15T04:11:12.790Z,15.40
2018-03-15T04:13:40.949Z,16.37
2018-03-15T04:16:09.080Z,17.83
2018-03-15T04:18:38.027Z,18.30
2018-03-15T04:21:06.165Z,16.58
2018-03-15T04:23:34.322Z,17.60
2018-03-15T04:26:02.458Z,18.15
2018-03-15T04:28:30.614Z,17.15
2018-03-15T04:30:58.742Z,15.45
2018-03-15T04:33:26.898Z,15.35
2018-03-15T04:35:55.031Z,15.23
2018-03-15T04:38:23.194Z,16.20
2018-03-15T04:40:51.321Z,15.85
2018-03-15T04:43:19.492Z,16.20
2018-03-15T04:45:47.622Z,17.27
2018-03-15T04:48:15.782Z,18.55
2018-03-15T04:50:43.913Z,16.30
2018-03-15T04:53:12.094Z,15.32
2018-03-15T04:55:40.234Z,18.27
2018-03-15T04:58:08.367Z,17.60
2018-03-15T05:00:36.528Z,16.00
2018-03-15T05:03:04.653Z,13.93
2018-03-15T05:05:32.809Z,14.95
2018-03-15T05:08:00.950Z,14.57
2018-03-15T05:10:29.882Z,14.77
2018-03-15T05:12:58.027Z,16.25
2018-03-15T05:15:26.189Z,13.45
2018-03-15T05:17:54.330Z,16.05
2018-03-15T05:20:22.498Z,15.13
2018-03-15T05:22:50.647Z,13.73
2018-03-15T05:25:18.812Z,16.85
2018-03-15T05:27:46.941Z,15.55
2018-03-15T05:30:15.100Z,13.55
2018-03-15T05:32:43.235Z,13.18
2018-03-15T05:35:11.400Z,14.75
2018-03-15T05:37:39.525Z,14.80
2018-03-15T05:40:07.691Z,14.55
2018-03-15T05:42:35.825Z,15.07
2018-03-15T05:45:03.982Z,13.55
2018-03-15T05:47:32.122Z,13.40
2018-03-15T05:50:00.283Z,15.63
2018-03-15T05:52:28.415Z,15.38
2018-03-15T05:54:56.579Z,15.02
2018-03-15T05:57:24.749Z,16.85
2018-03-15T05:59:52.910Z,12.88
2018-03-15T06:02:21.802Z,12.82
2018-03-15T06:04:49.972Z,12.15
2018-03-15T06:07:18.870Z,16.45
2018-03-15T06:09:47.000Z,13.13
2018-03-15T06:12:15.153Z,13.40
2018-03-15T06:14:43.282Z,12.10
2018-03-15T06:17:12.221Z,13.35
2018-03-15T06:19:40.360Z,11.98
2018-03-15T06:22:08.510Z,12.05
2018-03-15T06:24:36.653Z,9.55
2018-03-15T06:27:04.810Z,10.07
2018-03-15T06:29:32.954Z,11.95
2018-03-15T06:32:01.115Z,11.48
2018-03-15T06:34:29.246Z,11.25
2018-03-15T06:36:57.403Z,11.18
2018-03-15T06:39:25.532Z,10.43
2018-03-15T06:41:53.692Z,10.88
2018-03-15T06:44:21.823Z,9.55
2018-03-15T06:46:49.988Z,9.65
2018-03-15T06:49:18.119Z,9.48
2018-03-15T06:51:46.274Z,8.30
2018-03-15T06:54:14.411Z,8.55
2018-03-15T06:56:42.556Z,9.50
2018-03-15T06:59:10.688Z,9.38
2018-03-15T07:01:38.848Z,8.48
2018-03-15T07:04:06.978Z,9.32
2018-03-15T07:06:35.131Z,8.38
2018-03-15T07:09:04.022Z,7.97
2018-03-15T07:11:32.169Z,8.27
2018-03-15T07:14:00.312Z,7.80
2018-03-15T07:16:28.476Z,7.93
2018-03-15T07:18:56.597Z,8.18
2018-03-15T07:21:24.746Z,7.28
2018-03-15T07:23:52.877Z,7.07
2018-03-15T07:26:21.183Z,7.53
2018-03-15T07:28:49.430Z,7.57
2018-03-15T07:31:17.593Z,7.25
2018-03-15T07:33:45.723Z,6.07
2018-03-15T07:36:13.852Z,5.60
2018-03-15T07:38:41.997Z,7.62
2018-03-15T07:41:10.117Z,5.90
2018-03-15T07:43:38.266Z,6.40
2018-03-15T07:46:06.395Z,6.75
2018-03-15T07:48:34.552Z,6.75
2018-03-15T07:51:02.684Z,6.55
2018-03-15T07:53:30.834Z,7.15
2018-03-15T07:55:58.979Z,7.28
2018-03-15T07:58:27.133Z,6.28
2018-03-15T08:00:55.253Z,6.03
2018-03-15T08:03:23.412Z,8.95
2018-03-15T08:05:51.541Z,7.32
2018-03-15T08:08:19.690Z,5.93
2018-03-15T08:10:48.581Z,6.35
2018-03-15T08:13:16.731Z,6.35
2018-03-15T08:15:44.856Z,7.57
2018-03-15T08:18:13.000Z,6.05
2018-03-15T08:20:41.127Z,6.35
2018-03-15T08:23:09.272Z,6.50
2018-03-15T08:25:37.398Z,6.05
2018-03-15T08:28:05.546Z,8.10
2018-03-15T08:30:33.678Z,6.03
2018-03-15T08:33:01.833Z,7.00
2018-03-15T08:35:29.994Z,6.37
2018-03-15T08:37:58.112Z,7.10
2018-03-15T08:40:26.263Z,7.28
2018-03-15T08:42:54.390Z,6.72
2018-03-15T08:45:22.538Z,5.80
2018-03-15T08:47:50.680Z,6.93
2018-03-15T08:50:19.609Z,4.72
2018-03-15T08:52:47.746Z,5.80
2018-03-15T08:55:16.665Z,5.82
2018-03-15T08:57:44.788Z,5.03
2018-03-15T09:00:12.960Z,7.40
2018-03-15T09:02:41.098Z,7.18
2018-03-15T09:05:09.250Z,6.00
2018-03-15T09:07:37.457Z,6.45
2018-03-15T09:10:06.312Z,5.75
2018-03-15T09:12:34.449Z,6.18
2018-03-15T09:15:02.609Z,6.35
2018-03-15T09:17:30.735Z,6.82
2018-03-15T09:19:58.896Z,6.47
2018-03-15T09:22:27.029Z,5.75
2018-03-15T09:24:55.174Z,5.22
2018-03-15T09:27:23.310Z,6.90
2018-03-15T09:29:51.458Z,6.47
2018-03-15T09:32:19.612Z,6.22
2018-03-15T09:34:47.794Z,5.85
2018-03-15T09:37:16.940Z,6.65
2018-03-15T09:39:45.129Z,6.07
2018-03-15T09:42:13.274Z,6.25
2018-03-15T09:44:41.457Z,7.10
2018-03-15T09:47:09.610Z,5.75
2018-03-15T09:49:37.777Z,6.80
2018-03-15T09:52:05.954Z,7.75
2018-03-15T09:54:34.125Z,6.12
2018-03-15T09:57:02.286Z,5.78
2018-03-15T09:59:30.434Z,6.65
2018-03-15T10:01:58.597Z,7.12
2018-03-15T10:04:26.745Z,7.05
2018-03-15T10:06:54.916Z,5.87
2018-03-15T10:09:23.058Z,6.70
2018-03-15T10:11:51.256Z,6.50
2018-03-15T10:14:19.405Z,6.05
2018-03-15T10:16:47.578Z,6.78
2018-03-15T10:19:15.713Z,6.87
2018-03-15T10:21:43.915Z,6.43
2018-03-15T10:24:12.091Z,7.05
2018-03-15T10:26:40.264Z,6.72
2018-03-15T10:29:08.405Z,7.90
2018-03-15T10:31:36.620Z,7.28
2018-03-15T10:34:04.785Z,7.22
2018-03-15T10:36:33.730Z,7.30
2018-03-15T10:39:01.886Z,6.28
2018-03-15T10:41:30.058Z,6.70
2018-03-15T10:43:58.200Z,7.30
2018-03-15T10:46:26.381Z,7.12
2018-03-15T10:48:55.300Z,7.93
2018-03-15T10:51:23.459Z,8.65
2018-03-15T10:53:51.610Z,7.28
2018-03-15T10:56:19.786Z,6.75
2018-03-15T10:58:47.933Z,8.20
2018-03-15T11:01:21.777Z,7.78
2018-03-15T11:03:49.936Z,7.57
2018-03-15T11:06:23.683Z,6.82
2018-03-15T11:08:57.419Z,7.60
2018-03-15T11:11:25.594Z,7.07
2018-03-15T11:13:53.738Z,7.55
2018-03-15T11:16:21.905Z,7.25
2018-03-15T11:18:50.050Z,7.68
2018-03-15T11:21:18.986Z,6.43
2018-03-15T11:23:47.183Z,6.72
2018-03-15T11:26:15.323Z,6.03
2018-03-15T11:28:43.477Z,5.97
2018-03-15T11:31:11.650Z,6.25
2018-03-15T11:33:39.797Z,6.85
2018-03-15T11:36:07.983Z,5.75
2018-03-15T11:38:36.123Z,7.53
2018-03-15T11:41:04.279Z,6.12
2018-03-15T11:43:32.459Z,7.15
2018-03-15T11:46:00.631Z,6.57
2018-03-15T11:48:28.806Z,6.75
2018-03-15T11:50:56.962Z,7.90
2018-03-15T11:53:25.140Z,8.15
2018-03-15T11:55:53.286Z,6.85
2018-03-15T11:58:22.223Z,7.47
2018-03-15T12:00:50.363Z,6.30
2018-03-15T12:03:19.293Z,8.02
2018-03-15T12:05:47.426Z,6.55
2018-03-15T12:08:15.608Z,6.57
2018-03-15T12:10:43.763Z,6.07
2018-03-15T12:13:11.938Z,7.18
2018-03-15T12:15:40.846Z,6.40
2018-03-15T12:18:09.010Z,5.75
2018-03-15T12:20:37.905Z,6.18
2018-03-15T12:23:06.059Z,6.87
2018-03-15T12:25:34.181Z,7.10
2018-03-15T12:28:02.340Z,8.60
2018-03-15T12:30:30.461Z,6.25
2018-03-15T12:32:58.616Z,6.97
2018-03-15T12:35:26.750Z,7.22
2018-03-15T12:37:55.662Z,6.97
2018-03-15T12:40:23.788Z,6.05
2018-03-15T12:42:51.933Z,6.82
2018-03-15T12:45:20.079Z,6.40
2018-03-15T12:47:48.239Z,8.35
2018-03-15T12:50:16.371Z,6.45
2018-03-15T12:52:44.506Z,7.57
2018-03-15T12:55:12.667Z,7.55
2018-03-15T12:57:40.805Z,6.50
2018-03-15T13:00:08.959Z,7.25
2018-03-15T13:02:37.088Z,7.35
2018-03-15T13:05:05.239Z,6.97
2018-03-15T13:07:33.380Z,6.40
2018-03-15T13:10:01.542Z,7.15
2018-03-15T13:12:29.674Z,5.97
2018-03-15T13:14:57.828Z,6.70
2018-03-15T13:17:25.980Z,6.75
2018-03-15T13:19:54.145Z,7.07
2018-03-15T13:22:22.288Z,7.07
2018-03-15T13:24:50.442Z,7.43
2018-03-15T13:27:18.576Z,6.25
2018-03-15T13:29:46.774Z,7.47
2018-03-15T13:32:15.662Z,6.78
2018-03-15T13:34:43.810Z,5.82
2018-03-15T13:37:11.938Z,7.40
2018-03-15T13:39:40.080Z,7.05
2018-03-15T13:42:08.215Z,7.45
2018-03-15T13:44:37.134Z,8.80
2018-03-15T13:47:05.272Z,6.70
2018-03-15T13:49:33.421Z,6.68
2018-03-15T13:52:01.611Z,7.07
2018-03-15T13:54:29.742Z,6.57
2018-03-15T13:56:57.873Z,7.40
2018-03-15T13:59:26.794Z,6.50
2018-03-15T14:01:54.941Z,6.68
2018-03-15T14:04:23.062Z,7.37
2018-03-15T14:06:51.214Z,6.62
2018-03-15T14:09:19.347Z,7.28
2018-03-15T14:11:47.489Z,6.95
2018-03-15T14:14:15.626Z,7.20
2018-03-15T14:16:43.769Z,6.78
2018-03-15T14:19:11.903Z,6.50
2018-03-15T14:21:40.058Z,6.87
2018-03-15T14:24:08.178Z,6.87
2018-03-15T14:26:36.337Z,6.35
2018-03-15T14:29:04.474Z,6.32
2018-03-15T14:31:33.398Z,6.05
2018-03-15T14:34:01.526Z,6.93
2018-03-15T14:36:29.675Z,6.78
2018-03-15T14:38:57.806Z,5.80
2018-03-15T14:41:25.958Z,6.35
2018-03-15T14:43:54.219Z,7.05
2018-03-15T14:46:22.276Z,6.82
2018-03-15T14:48:50.410Z,7.05
2018-03-15T14:51:18.558Z,5.05
2018-03-15T14:53:46.690Z,6.18
2018-03-15T14:56:14.846Z,6.18
2018-03-15T14:58:42.982Z,6.25
2018-03-15T15:01:11.130Z,6.37
2018-03-15T15:03:39.250Z,6.45
2018-03-15T15:06:07.479Z,6.22
2018-03-15T15:08:35.627Z,6.43
2018-03-15T15:11:03.834Z,6.32
2018-03-15T15:13:32.006Z,5.32
2018-03-15T15:16:00.126Z,6.55
2018-03-15T15:18:28.283Z,6.68
2018-03-15T15:20:56.420Z,7.35
2018-03-15T15:23:24.568Z,7.78
2018-03-15T15:25:52.693Z,6.53
2018-03-15T15:28:20.856Z,5.60
2018-03-15T15:30:48.981Z,4.82
2018-03-15T15:33:17.130Z,5.43
2018-03-15T15:35:45.262Z,5.35
2018-03-15T15:38:13.426Z,6.00
2018-03-15T15:40:41.577Z,5.00
2018-03-15T15:43:09.751Z,4.82
2018-03-15T15:45:37.890Z,5.22
2018-03-15T15:48:06.052Z,6.28
2018-03-15T15:50:34.209Z,5.40
2018-03-15T15:53:02.382Z,7.28
2018-03-15T15:55:30.615Z,8.05
2018-03-15T15:57:58.775Z,8.10
2018-03-15T16:00:26.944Z,7.10
2018-03-15T16:02:55.079Z,6.90
2018-03-15T16:05:23.260Z,6.68
2018-03-15T16:07:52.269Z,6.60
2018-03-15T16:10:21.198Z,6.05
2018-03-15T16:12:49.332Z,5.57
2018-03-15T16:15:18.245Z,6.68
2018-03-15T16:17:46.373Z,6.00
2018-03-15T16:20:14.548Z,6.00
2018-03-15T16:22:42.723Z,7.00
2018-03-15T16:25:10.951Z,5.72
2018-03-15T16:27:39.209Z,8.00
2018-03-15T16:30:07.514Z,5.90
2018-03-15T16:32:35.669Z,7.00
2018-03-15T16:35:03.834Z,6.80
2018-03-15T16:37:32.062Z,7.57
2018-03-15T16:40:00.208Z,6.97
2018-03-15T16:42:28.365Z,5.53
2018-03-15T16:44:56.515Z,5.80
2018-03-15T16:47:24.796Z,5.85
2018-03-15T16:49:52.931Z,6.40
2018-03-15T16:52:21.155Z,6.03
2018-03-15T16:54:49.290Z,5.22
2018-03-15T16:57:17.479Z,6.35
2018-03-15T16:59:45.628Z,5.72
2018-03-15T17:02:13.805Z,5.40
2018-03-15T17:04:41.958Z,5.75
2018-03-15T17:07:10.112Z,7.75
2018-03-15T17:09:38.243Z,6.00
2018-03-15T17:12:06.450Z,6.68
2018-03-15T17:14:34.590Z,6.80
2018-03-15T17:17:02.822Z,6.65
2018-03-15T17:19:30.966Z,6.47
2018-03-15T17:21:59.176Z,5.60
2018-03-15T17:24:27.334Z,6.68
2018-03-15T17:26:55.477Z,5.25
2018-03-15T17:29:23.648Z,6.20
2018-03-15T17:31:52.571Z,6.00
2018-03-15T17:34:20.729Z,6.10
2018-03-15T17:36:48.867Z,5.75
2018-03-15T17:39:17.026Z,6.32
2018-03-15T17:41:45.152Z,5.95
2018-03-15T17:44:13.575Z,5.53
2018-03-15T17:46:41.986Z,5.85
2018-03-15T17:49:10.170Z,6.60
2018-03-15T17:51:38.301Z,6.10
2018-03-15T17:54:07.540Z,6.28
2018-03-15T17:56:35.808Z,6.55
2018-03-15T17:59:04.278Z,5.40
2018-03-15T18:01:32.598Z,5.62
2018-03-15T18:04:00.835Z,5.43
2018-03-15T18:06:29.327Z,4.97
2018-03-15T18:08:57.530Z,5.22
2018-03-15T18:11:25.672Z,5.97
2018-03-15T18:13:53.877Z,8.10
2018-03-15T18:16:21.997Z,6.10
2018-03-15T18:18:50.132Z,4.85
2018-03-15T18:21:18.948Z,6.15
2018-03-15T18:23:47.259Z,7.07
2018-03-15T18:26:15.491Z,6.05
2018-03-15T18:28:43.641Z,6.40
2018-03-15T18:31:12.075Z,5.03
2018-03-15T18:33:40.502Z,5.45
2018-03-15T18:36:08.873Z,7.15
2018-03-15T18:38:37.535Z,5.50
2018-03-15T18:41:06.026Z,6.00
2018-03-15T18:43:34.362Z,6.82
2018-03-15T18:46:02.772Z,5.95
2018-03-15T18:48:30.969Z,6.53
2018-03-15T18:50:59.202Z,6.22
2018-03-15T18:53:27.439Z,6.00
2018-03-15T18:55:56.050Z,6.90
2018-03-15T18:58:24.794Z,7.05
2018-03-15T19:00:53.980Z,6.00
2018-03-15T19:03:23.724Z,6.32
2018-03-15T19:05:52.529Z,6.45
2018-03-15T19:08:20.850Z,6.75
2018-03-15T19:10:49.073Z,6.57
2018-03-15T19:13:17.429Z,6.35
2018-03-15T19:15:45.788Z,4.90
2018-03-15T19:18:13.958Z,7.07
2018-03-15T19:20:43.950Z,6.62
2018-03-15T19:23:12.257Z,6.22
2018-03-15T19:25:40.850Z,7.25
2018-03-15T19:28:09.014Z,6.30
2018-03-15T19:30:37.319Z,5.90
2018-03-15T19:33:05.542Z,6.82
2018-03-15T19:35:34.606Z,7.03
2018-03-15T19:38:03.414Z,7.05
2018-03-15T19:40:31.660Z,6.15
2018-03-15T19:42:59.874Z,6.18
2018-03-15T19:45:28.104Z,7.40
2018-03-15T19:47:56.640Z,5.93
2018-03-15T19:50:25.889Z,8.13
2018-03-15T19:52:54.050Z,7.00
2018-03-15T19:55:22.257Z,7.82
2018-03-15T19:57:50.634Z,6.45
2018-03-15T20:00:18.951Z,6.55
2018-03-15T20:02:47.479Z,6.35
2018-03-15T20:05:15.677Z,7.65
2018-03-15T20:07:44.251Z,5.82
2018-03-15T20:10:12.594Z,6.40
2018-03-15T20:12:40.848Z,5.20
2018-03-15T20:15:09.043Z,7.10
2018-03-15T20:17:37.370Z,7.28
2018-03-15T20:20:05.779Z,6.30
2018-03-15T20:22:39.771Z,7.18
2018-03-15T20:25:07.933Z,8.20
2018-03-15T20:27:41.949Z,8.00
2018-03-15T20:30:10.536Z,7.32
2018-03-15T20:32:44.327Z,6.75
2018-03-15T20:35:12.489Z,9.18
2018-03-15T20:37:40.653Z,8.07
2018-03-15T20:40:14.521Z,6.68
2018-03-15T20:42:42.685Z,6.65
2018-03-15T20:45:17.304Z,7.50
2018-03-15T20:47:51.174Z,6.40
2018-03-15T20:50:19.410Z,6.82
2018-03-15T20:52:47.565Z,8.10
2018-03-15T20:55:15.808Z,7.82
2018-03-15T20:57:44.046Z,7.57
2018-03-15T21:00:12.308Z,7.18
2018-03-15T21:02:40.471Z,8.25
2018-03-15T21:05:08.590Z,6.90
2018-03-15T21:07:36.775Z,7.90
2018-03-15T21:10:04.901Z,8.13
2018-03-15T21:12:33.060Z,8.82
2018-03-15T21:15:01.185Z,8.27
2018-03-15T21:17:29.404Z,8.65
2018-03-15T21:19:57.502Z,8.48
2018-03-15T21:22:25.621Z,7.40
2018-03-15T21:24:53.854Z,8.50
2018-03-15T21:27:21.992Z,7.85
2018-03-15T21:29:50.915Z,8.48
2018-03-15T21:32:19.046Z,8.73
2018-03-15T21:34:47.211Z,8.90
2018-03-15T21:37:15.337Z,10.00
2018-03-15T21:39:43.493Z,10.77
2018-03-15T21:42:11.623Z,8.70
2018-03-15T21:44:39.827Z,9.63
2018-03-15T21:47:07.922Z,8.88
2018-03-15T21:49:36.099Z,8.15
2018-03-15T21:52:04.257Z,7.95
2018-03-15T21:54:32.418Z,9.48
2018-03-15T21:57:00.545Z,8.35
2018-03-15T21:59:28.728Z,8.70
2018-03-15T22:01:56.872Z,10.95
2018-03-15T22:04:25.034Z,10.32
2018-03-15T22:06:53.162Z,9.15
2018-03-15T22:09:21.319Z,9.02
2018-03-15T22:11:49.499Z,9.05
2018-03-15T22:14:17.654Z,9.85
2018-03-15T22:16:45.787Z,10.50
2018-03-15T22:19:13.987Z,12.23
2018-03-15T22:21:42.158Z,12.80
2018-03-15T22:24:10.299Z,10.82
2018-03-15T22:26:38.455Z,11.30
2018-03-15T22:29:06.591Z,8.43
2018-03-15T22:31:34.752Z,9.57
2018-03-15T22:34:02.908Z,10.82
2018-03-15T22:36:31.077Z,11.70
2018-03-15T22:38:59.975Z,10.80
2018-03-15T22:41:28.130Z,9.10
2018-03-15T22:43:57.035Z,8.45
2018-03-15T22:46:25.190Z,9.70
2018-03-15T22:48:54.102Z,9.80
2018-03-15T22:51:22.342Z,10.27
2018-03-15T22:53:50.503Z,12.10
2018-03-15T22:56:18.691Z,10.57
2018-03-15T22:58:46.830Z,12.32
2018-03-15T23:01:15.043Z,10.77
2018-03-15T23:03:43.200Z,10.02
2018-03-15T23:06:11.364Z,11.57
2018-03-15T23:08:39.493Z,9.52
2018-03-15T23:11:07.676Z,10.55
2018-03-15T23:13:35.818Z,11.12
2018-03-15T23:16:04.830Z,10.30
2018-03-15T23:18:33.736Z,11.98
2018-03-15T23:21:01.897Z,10.82
2018-03-15T23:23:30.798Z,11.70
2018-03-15T23:25:58.956Z,10.43
2018-03-15T23:28:27.855Z,11.50
2018-03-15T23:30:56.023Z,10.40
2018-03-15T23:33:24.919Z,11.75
2018-03-15T23:35:53.053Z,12.20
2018-03-15T23:38:21.211Z,11.65
2018-03-15T23:40:49.350Z,11.85
2018-03-15T23:43:17.515Z,9.95
2018-03-15T23:45:45.651Z,14.00
2018-03-15T23:48:13.814Z,12.35
2018-03-15T23:50:41.956Z,11.45
2018-03-15T23:53:10.113Z,11.30
2018-03-15T23:55:38.245Z,12.30
2018-03-15T23:58:06.393Z,10.77
